createdAt,value
2023-05-10T00:03:51.310Z,11.82
2023-05-10T00:07:54.250Z,8.02
2023-05-10T00:11:55.776Z,7.00
2023-05-10T00:15:57.348Z,8.75
2023-05-10T00:19:58.921Z,7.68
2023-05-10T00:24:01.834Z,7.07
2023-05-10T00:28:03.553Z,9.45
2023-05-10T00:32:05.579Z,8.93
2023-05-10T00:36:08.014Z,9.98
2023-05-10T00:40:12.081Z,8.77
2023-05-10T00:44:13.632Z,12.40
2023-05-10T00:48:15.304Z,7.25
2023-05-10T00:52:16.947Z,8.93
2023-05-10T00:56:20.056Z,10.75
2023-05-10T01:04:23.031Z,10.45
2023-05-10T01:08:24.977Z,11.40
2023-05-10T01:12:27.991Z,12.40
2023-05-10T01:16:33.291Z,9.23
2023-05-10T01:20:41.488Z,7.57
2023-05-10T01:25:23.595Z,9.02
2023-05-10T01:29:48.976Z,11.15
2023-05-10T01:33:58.639Z,10.35
2023-05-10T01:38:08.814Z,8.23
2023-05-10T01:42:13.817Z,6.88
2023-05-10T01:46:18.655Z,9.20
2023-05-10T01:50:28.133Z,8.02
2023-05-10T01:54:30.566Z,12.80
2023-05-10T01:58:34.614Z,10.38
2023-05-10T02:02:38.626Z,12.60
2023-05-10T02:06:43.432Z,9.63
2023-05-10T02:10:46.826Z,11.60
2023-05-10T02:14:48.662Z,10.98
2023-05-10T02:18:52.572Z,9.82
2023-05-10T02:22:56.940Z,11.60
2023-05-10T02:26:59.513Z,10.38
2023-05-10T02:31:01.871Z,12.80
2023-05-10T02:35:04.680Z,11.87
2023-05-10T02:39:08.719Z,11.70
2023-05-10T02:43:13.816Z,12.02
2023-05-10T02:47:15.513Z,10.05
2023-05-10T02:51:19.138Z,13.68
2023-05-10T02:55:26.559Z,14.57
2023-05-10T02:59:28.536Z,15.00
2023-05-10T03:03:30.107Z,12.60
2023-05-10T03:07:31.871Z,15.05
2023-05-10T03:11:44.093Z,12.07
2023-05-10T03:15:55.551Z,13.23
2023-05-10T03:19:58.714Z,12.35
2023-05-10T03:28:09.938Z,17.25
2023-05-10T03:32:11.508Z,14.40
2023-05-10T03:36:13.014Z,15.93
2023-05-10T03:40:14.833Z,20.10
2023-05-10T03:44:17.811Z,16.73
2023-05-10T03:48:19.323Z,17.00
2023-05-10T03:52:20.822Z,18.58
2023-05-10T03:56:22.348Z,18.60
2023-05-10T04:00:25.679Z,19.05
2023-05-10T04:04:27.297Z,21.00
2023-05-10T04:08:29.036Z,21.58
2023-05-10T04:12:30.541Z,19.80
2023-05-10T04:16:33.411Z,22.60
2023-05-10T04:20:34.983Z,22.65
2023-05-10T04:24:36.479Z,22.27
2023-05-10T04:28:37.965Z,22.35
2023-05-10T04:32:40.909Z,19.45
2023-05-10T04:36:42.439Z,20.00
2023-05-10T04:40:43.990Z,20.02
2023-05-10T04:44:45.494Z,20.45
2023-05-10T04:48:48.575Z,22.23
2023-05-10T04:56:51.422Z,16.98
2023-05-10T05:00:52.962Z,17.30
2023-05-10T05:04:56.701Z,18.20
2023-05-10T05:08:58.208Z,22.33
2023-05-10T05:12:59.754Z,20.38
2023-05-10T05:17:01.492Z,19.75
2023-05-10T05:21:04.360Z,21.17
2023-05-10T05:25:06.953Z,20.75
2023-05-10T05:29:08.454Z,27.42
2023-05-10T05:33:10.390Z,22.23
2023-05-10T05:37:15.041Z,21.17
2023-05-10T05:41:16.625Z,21.20
2023-05-10T05:45:18.554Z,21.88
2023-05-10T05:49:20.281Z,20.25
2023-05-10T05:53:23.287Z,27.38
2023-05-10T05:57:24.801Z,27.88
2023-05-10T06:01:26.358Z,20.42
2023-05-10T06:05:27.886Z,22.65
2023-05-10T06:09:30.734Z,24.63
2023-05-10T06:13:32.335Z,20.88
2023-05-10T06:17:33.992Z,20.13
2023-05-10T06:21:35.527Z,23.70
2023-05-10T06:25:38.396Z,21.75
2023-05-10T06:29:39.922Z,21.63
2023-05-10T06:33:41.446Z,22.75
2023-05-10T06:37:42.966Z,26.05
2023-05-10T06:41:45.818Z,21.35
2023-05-10T06:45:48.494Z,19.85
2023-05-10T06:49:50.030Z,20.60
2023-05-10T06:53:51.562Z,24.17
2023-05-10T06:57:54.531Z,20.50
2023-05-10T07:01:56.027Z,20.05
2023-05-10T07:06:01.611Z,24.33
2023-05-10T07:10:03.365Z,23.10
2023-05-10T07:14:06.233Z,25.20
2023-05-10T07:18:07.879Z,20.55
2023-05-10T07:22:09.488Z,18.02
2023-05-10T07:26:10.988Z,17.85
2023-05-10T07:30:14.586Z,19.27
2023-05-10T07:34:16.137Z,22.80
2023-05-10T07:38:17.621Z,18.83
2023-05-10T07:42:19.536Z,19.50
2023-05-10T07:46:22.439Z,19.88
2023-05-10T07:50:24.035Z,23.60
2023-05-10T07:54:25.616Z,18.75
2023-05-10T07:58:27.699Z,16.70
2023-05-10T08:02:30.717Z,19.70
2023-05-10T08:10:33.716Z,14.45
2023-05-10T08:14:35.278Z,12.80
2023-05-10T08:18:38.326Z,14.82
2023-05-10T08:26:41.363Z,11.60
2023-05-10T08:30:42.866Z,10.90
2023-05-10T08:34:45.726Z,11.27
2023-05-10T08:38:47.229Z,13.00
2023-05-10T08:42:55.184Z,14.35
2023-05-10T08:46:58.332Z,13.60
2023-05-10T08:55:02.955Z,11.88
2023-05-10T08:59:04.518Z,12.27
2023-05-10T09:03:06.732Z,12.20
2023-05-10T09:07:09.593Z,11.77
2023-05-10T09:11:12.700Z,10.52
2023-05-10T09:19:18.548Z,11.55
2023-05-10T09:23:21.423Z,9.02
2023-05-10T09:27:27.857Z,11.02
2023-05-10T09:31:46.436Z,8.85
2023-05-10T09:35:48.161Z,8.60
2023-05-10T09:39:55.415Z,10.68
2023-05-10T09:43:57.196Z,6.22
2023-05-10T09:47:59.860Z,6.65
2023-05-10T09:52:02.806Z,6.78
2023-05-10T09:56:05.928Z,4.25
2023-05-10T10:04:10.587Z,2.65
2023-05-10T10:08:13.396Z,2.95
2023-05-10T10:12:16.278Z,4.03
2023-05-10T10:16:17.777Z,4.40
2023-05-10T10:20:20.871Z,3.13
2023-05-10T10:24:22.388Z,3.75
2023-05-10T10:28:36.952Z,4.07
2023-05-10T10:32:55.411Z,2.10
2023-05-10T10:36:58.041Z,3.33
2023-05-10T10:41:04.044Z,4.88
2023-05-10T10:45:16.400Z,2.03
2023-05-10T10:49:18.114Z,3.28
2023-05-10T10:53:19.680Z,4.40
2023-05-10T10:57:21.274Z,2.33
2023-05-10T11:01:24.151Z,6.47
2023-05-10T11:05:34.951Z,3.97
2023-05-10T11:09:40.727Z,2.70
2023-05-10T11:13:43.950Z,2.20
2023-05-10T11:17:48.676Z,2.58
2023-05-10T11:21:52.092Z,2.00
2023-05-10T11:25:53.676Z,5.03
2023-05-10T11:29:55.190Z,3.25
2023-05-10T11:33:59.827Z,2.55
2023-05-10T11:38:01.326Z,2.92
2023-05-10T11:42:03.022Z,2.08
2023-05-10T11:46:05.278Z,2.13
2023-05-10T11:50:09.345Z,2.03
2023-05-10T11:54:12.343Z,4.32
2023-05-10T12:02:15.375Z,3.90
2023-05-10T12:06:19.005Z,2.70
2023-05-10T12:10:27.225Z,4.05
2023-05-10T12:14:28.719Z,1.73
2023-05-10T12:18:30.230Z,7.22
2023-05-10T12:22:34.601Z,6.50
2023-05-10T12:26:36.212Z,7.95
2023-05-10T12:30:38.315Z,17.63
2023-05-10T12:34:39.883Z,12.75
2023-05-10T12:38:44.460Z,8.38
2023-05-10T12:42:46.053Z,7.72
2023-05-10T12:46:47.560Z,6.15
2023-05-10T12:50:49.109Z,3.38
2023-05-10T12:54:51.976Z,8.70
2023-05-10T12:58:53.454Z,11.00
2023-05-10T13:02:55.040Z,4.10
2023-05-10T13:06:56.609Z,4.60
2023-05-10T13:10:59.678Z,5.78
2023-05-10T13:19:02.608Z,2.30
2023-05-10T13:23:04.233Z,2.63
2023-05-10T13:27:07.526Z,3.00
2023-05-10T13:31:09.079Z,2.10
2023-05-10T13:35:10.646Z,2.58
2023-05-10T13:39:12.164Z,3.22
2023-05-10T13:43:15.026Z,3.53
2023-05-10T13:47:16.644Z,2.70
2023-05-10T13:51:18.137Z,4.28
2023-05-10T13:55:19.933Z,1.88
2023-05-10T13:59:23.007Z,2.65
2023-05-10T14:03:24.537Z,2.22
2023-05-10T14:07:26.044Z,4.70
2023-05-10T14:11:27.524Z,5.07
2023-05-10T14:15:30.347Z,2.03
2023-05-10T14:19:31.858Z,2.63
2023-05-10T14:23:33.369Z,5.95
2023-05-10T14:27:34.846Z,2.50
2023-05-10T14:31:37.685Z,3.28
2023-05-10T14:35:39.179Z,2.63
2023-05-10T14:39:40.668Z,2.95
2023-05-10T14:43:42.246Z,2.70
2023-05-10T14:47:45.075Z,8.35
2023-05-10T14:51:46.585Z,3.47
2023-05-10T14:55:48.092Z,6.18
2023-05-10T14:59:49.576Z,2.85
2023-05-10T15:03:52.957Z,3.63
2023-05-10T15:07:55.003Z,3.65
2023-05-10T15:11:56.631Z,2.65
2023-05-10T15:15:59.292Z,2.60
2023-05-10T15:20:02.374Z,3.22
2023-05-10T15:28:05.909Z,3.08
2023-05-10T15:32:07.415Z,3.05
2023-05-10T15:36:10.631Z,8.85
2023-05-10T15:40:12.638Z,5.00
2023-05-10T15:44:14.204Z,4.93
2023-05-10T15:48:15.701Z,3.28
2023-05-10T15:52:18.537Z,3.72
2023-05-10T15:56:20.058Z,5.40
2023-05-10T16:00:21.585Z,3.38
2023-05-10T16:04:23.368Z,7.40
2023-05-10T16:08:26.217Z,5.50
2023-05-10T16:12:28.241Z,5.85
2023-05-10T16:16:29.795Z,4.00
2023-05-10T16:20:32.602Z,5.57
2023-05-10T16:24:35.436Z,5.43
2023-05-10T16:28:36.928Z,7.70
2023-05-10T16:32:38.457Z,11.63
2023-05-10T16:36:39.998Z,8.43
2023-05-10T16:40:42.836Z,68.25
2023-05-10T16:44:44.341Z,17.92
2023-05-10T16:48:46.025Z,19.75
2023-05-10T16:52:47.646Z,10.05
2023-05-10T16:56:50.511Z,16.15
2023-05-10T17:00:52.046Z,8.70
2023-05-10T17:04:53.958Z,11.88
2023-05-10T17:08:55.438Z,7.35
2023-05-10T17:12:58.259Z,10.02
2023-05-10T17:16:59.869Z,7.00
2023-05-10T17:21:01.442Z,7.63
2023-05-10T17:25:03.132Z,12.93
2023-05-10T17:29:05.977Z,7.63
2023-05-10T17:33:07.503Z,16.92
2023-05-10T17:37:10.172Z,8.25
2023-05-10T17:41:11.681Z,6.75
2023-05-10T17:45:15.021Z,8.65
2023-05-10T17:49:16.627Z,7.55
2023-05-10T17:53:18.230Z,9.23
2023-05-10T17:57:19.721Z,9.13
2023-05-10T18:01:22.622Z,11.57
2023-05-10T18:05:24.500Z,12.40
2023-05-10T18:09:26.438Z,12.88
2023-05-10T18:13:28.012Z,11.15
2023-05-10T18:17:30.873Z,11.30
2023-05-10T18:21:32.476Z,14.75
2023-05-10T18:25:34.015Z,19.10
2023-05-10T18:29:35.587Z,14.70
2023-05-10T18:33:38.445Z,10.55
2023-05-10T18:37:40.249Z,19.85
2023-05-10T18:41:41.783Z,11.48
2023-05-10T18:45:43.286Z,9.40
2023-05-10T18:49:46.176Z,8.27
2023-05-10T18:53:47.758Z,8.18
2023-05-10T18:57:49.230Z,11.75
2023-05-10T19:01:51.419Z,7.82
2023-05-10T19:05:54.559Z,11.63
2023-05-10T19:09:56.048Z,10.43
2023-05-10T19:13:57.702Z,11.57
2023-05-10T19:17:59.278Z,10.38
2023-05-10T19:22:02.460Z,11.85
2023-05-10T19:30:07.028Z,11.60
2023-05-10T19:34:08.527Z,11.30
2023-05-10T19:38:11.468Z,12.80
2023-05-10T19:42:12.976Z,11.30
2023-05-10T19:46:17.143Z,11.20
2023-05-10T19:50:19.420Z,9.07
2023-05-10T19:54:22.287Z,13.55
2023-05-10T19:58:23.950Z,10.00
2023-05-10T20:02:25.462Z,13.90
2023-05-10T20:06:26.989Z,11.48
2023-05-10T20:10:30.060Z,12.93
2023-05-10T20:14:31.534Z,10.10
2023-05-10T20:18:33.040Z,10.63
2023-05-10T20:22:34.511Z,11.05
2023-05-10T20:26:37.351Z,10.30
2023-05-10T20:30:39.148Z,10.82
2023-05-10T20:34:40.650Z,11.27
2023-05-10T20:38:42.232Z,12.52
2023-05-10T20:42:45.042Z,9.05
2023-05-10T20:46:46.599Z,10.90
2023-05-10T20:50:48.096Z,9.70
2023-05-10T20:54:49.570Z,11.07
2023-05-10T20:58:52.405Z,13.30
2023-05-10T21:02:53.923Z,11.85
2023-05-10T21:06:55.441Z,11.50
2023-05-10T21:10:56.942Z,10.40
2023-05-10T21:14:59.782Z,10.27
2023-05-10T21:19:01.293Z,10.57
2023-05-10T21:23:02.799Z,11.38
2023-05-10T21:27:04.317Z,10.98
2023-05-10T21:31:07.163Z,11.50
2023-05-10T21:35:09.073Z,12.20
2023-05-10T21:39:10.961Z,12.63
2023-05-10T21:43:12.498Z,13.82
2023-05-10T21:47:15.343Z,10.35
2023-05-10T21:51:16.868Z,11.98
2023-05-10T21:55:18.481Z,13.88
2023-05-10T21:59:20.024Z,11.95
2023-05-10T22:03:23.002Z,12.80
2023-05-10T22:07:24.532Z,15.25
2023-05-10T22:11:26.064Z,13.35
2023-05-10T22:15:27.574Z,10.30
2023-05-10T22:19:30.405Z,12.27
2023-05-10T22:23:31.877Z,11.65
2023-05-10T22:27:33.407Z,12.23
2023-05-10T22:31:34.955Z,10.57
2023-05-10T22:35:37.857Z,10.88
2023-05-10T22:39:39.328Z,11.60
2023-05-10T22:43:40.810Z,14.35
2023-05-10T22:47:42.297Z,12.65
2023-05-10T22:51:45.157Z,11.00
2023-05-10T22:55:46.715Z,13.65
2023-05-10T22:59:48.378Z,14.40
2023-05-10T23:03:50.239Z,9.93
2023-05-10T23:07:53.121Z,9.30
2023-05-10T23:11:54.652Z,12.18
2023-05-10T23:15:56.340Z,10.43
2023-05-10T23:19:58.073Z,15.45
2023-05-10T23:24:00.951Z,10.00
2023-05-10T23:28:02.543Z,10.05
2023-05-10T23:32:04.352Z,11.65
2023-05-10T23:36:06.215Z,13.45
2023-05-10T23:40:10.449Z,10.80
2023-05-10T23:44:11.942Z,10.38
2023-05-10T23:48:13.429Z,10.40
2023-05-10T23:52:14.911Z,10.23
2023-05-10T23:56:17.741Z,7.43
